Portada
METAR-TAF:

METAR-TAF

Aeroports :

Lima, Ohio, Estats Units d'Amèrica

latitud: 40-42-29N, longitud: 084-01-17W, altitud: 297 m

Observació

L'informe es va fer fa 32 minuts, a les 10:53 UTC
Vent 10 kt del Sud/Sud-Oest amb ràfegues de 20 kt
Temperatura 24°C
Humitat 65%
Pressió 1008 hPa
Visibilitat: 16.1 km
Cel clar

METAR: KAOH 221053Z AUTO 21010G20KT 10SM CLR 24/17 A2978 RMK AO2 SLP076 T02390167

Hora: 07:25 (11:25 UTC)


TAF: manca

Observacions i pronòstics meteorològics de més de 4000 aeroports (METAR i TAF).

Les estacions disponibles són els punts grocs i vermells al mapa.

Posi el ratolí al punt desitjat per veure el nom de l'estació.

Feu clic per veure les observacions i els pronòstics meteorològics.

Per canviar el mapa: feu clic els botons verds amb una creu de color negre per apropar; al botó verd amb un guió per allunyar la imatge; o en les fletxes verdes per a mapes adjacents.


METAR-TAF: